Pagrindinis puslapis
METAR-TAF:

METAR-TAF

Oro uostai :

Kemis, Suomija

platuma: 65-47N, ilguma: 024-35E, Aukštis: 15 m

Dabartinis oras

Ataskaita buvo paskelbta 39 minutes, ne 22:50 UTC
Vėjas 6 kt iš Šiaurės Vakarų
Temperatūra 13°C
Drėgmė 82%
Slėgis 997 hPa
Matomumas 10 km arba daugiau
Apsiniaukę ne aukštis 4600 ft
lietus

METAR: EFKE 012250Z AUTO 31006KT 9999 -SHRA OVC046 13/10 Q0997

Laikas: 02:29 (23:29 UTC)

Prognozė

Ataskaita buvo paskelbta 3 valandos ir 2 minutes, ne 20:27 UTC
Prognozė galioja nuo 01 metu 21 UTC su 02 metu 06 UTC
Vėjas 7 kt iš Šiaurės/Šiaurės Vakarų
Matomumas 10 km arba daugiau
Su prošvaistėmis ne aukštis 4000 ft
Tikimybė 30%
nuo 01 metu 22 UTC su 02 metu 03 UTC
Su prošvaistėmis ne aukštis 800 ft

TAF: EFKE 012027Z 0121/0206 33007KT 9999 BKN040 PROB30 0122/0203 BKN008

Orai ataskaitas ir orų prognozės (METAR, TAF).

turimą stotys yra geltonos ir raudonos taškus žemėlapyje.

Perkelti pele per norėdami pamatyti stoties vardą.

Tada spustelėkite, norėdami matyti oro stebėjimo ir prognozės.

Norėdami pakeisti žemėlapį: spustelėkite ant žalios mygtukų su juodo kryžiaus žemyn,; žalią mygtuką su brūkšneliu, jei norite nutolinti; arba žalių rodyklių gretimoms žemėlapius.


METAR-TAF: